createdAt,value
2023-02-16T00:01:52.185Z,81.41
2023-02-16T00:04:24.651Z,80.92
2023-02-16T00:06:52.864Z,81.91
2023-02-16T00:09:21.006Z,82.25
2023-02-16T00:12:27.770Z,81.50
2023-02-16T00:14:54.430Z,81.19
2023-02-16T00:17:21.005Z,80.56
2023-02-16T00:19:47.673Z,80.71
2023-02-16T00:22:14.239Z,80.83
2023-02-16T00:24:40.898Z,80.75
2023-02-16T00:27:15.331Z,80.89
2023-02-16T00:29:44.698Z,80.93
2023-02-16T00:32:12.899Z,81.16
2023-02-16T00:34:43.167Z,80.79
2023-02-16T00:37:12.467Z,80.80
2023-02-16T00:39:41.333Z,80.98
2023-02-16T00:42:29.898Z,80.33
2023-02-16T00:44:57.947Z,80.13
2023-02-16T00:47:38.110Z,80.17
2023-02-16T00:50:17.760Z,79.80
2023-02-16T00:52:46.938Z,80.33
2023-02-16T00:55:20.052Z,80.29
2023-02-16T00:57:56.327Z,79.92
2023-02-16T01:00:27.323Z,78.98
2023-02-16T01:02:57.484Z,79.53
2023-02-16T01:05:24.878Z,78.44
2023-02-16T01:08:10.349Z,78.38
2023-02-16T01:11:10.846Z,78.03
2023-02-16T01:13:47.381Z,78.44
2023-02-16T01:16:38.746Z,79.82
2023-02-16T01:19:05.879Z,79.45
2023-02-16T01:21:32.836Z,78.58
2023-02-16T01:24:01.405Z,79.60
2023-02-16T01:26:28.994Z,79.12
2023-02-16T01:28:55.604Z,79.56
2023-02-16T01:31:22.358Z,78.89
2023-02-16T01:33:51.646Z,79.29
2023-02-16T01:36:24.559Z,79.30
2023-02-16T01:38:51.335Z,81.98
2023-02-16T01:41:32.775Z,81.98
2023-02-16T01:44:15.525Z,82.17
2023-02-16T01:46:49.878Z,81.26
2023-02-16T01:49:18.353Z,80.19
2023-02-16T01:52:00.128Z,79.38
2023-02-16T01:54:56.181Z,80.95
2023-02-16T01:57:41.479Z,80.37
2023-02-16T02:00:12.389Z,79.12
2023-02-16T02:02:47.909Z,79.42
2023-02-16T02:05:36.850Z,79.17
2023-02-16T02:08:15.961Z,78.24
2023-02-16T02:11:07.142Z,78.28
2023-02-16T02:14:00.638Z,77.91
2023-02-16T02:16:28.987Z,77.87
2023-02-16T02:18:55.993Z,78.70
2023-02-16T02:22:05.070Z,79.55
2023-02-16T02:25:06.671Z,81.09
2023-02-16T02:27:39.539Z,80.47
2023-02-16T02:30:15.021Z,80.55
2023-02-16T02:33:02.642Z,80.40
2023-02-16T02:35:51.212Z,79.69
2023-02-16T02:38:26.797Z,79.53
2023-02-16T02:41:12.505Z,79.09
2023-02-16T02:43:43.136Z,78.86
2023-02-16T02:46:25.465Z,78.33
2023-02-16T02:48:52.990Z,79.47
2023-02-16T02:51:30.336Z,79.26
2023-02-16T02:54:38.950Z,78.43
2023-02-16T02:57:40.446Z,78.52
2023-02-16T03:00:32.305Z,78.04
2023-02-16T03:03:10.902Z,77.64
2023-02-16T03:05:41.367Z,77.38
2023-02-16T03:08:15.381Z,77.02
2023-02-16T03:11:05.439Z,77.53
2023-02-16T03:13:57.496Z,78.13
2023-02-16T03:16:31.911Z,78.19
2023-02-16T03:19:18.140Z,77.70
2023-02-16T03:22:03.529Z,77.68
2023-02-16T03:24:50.903Z,79.03
2023-02-16T03:27:44.522Z,79.04
2023-02-16T03:30:15.802Z,79.50
2023-02-16T03:32:44.761Z,79.12
2023-02-16T03:35:12.743Z,78.42
2023-02-16T03:37:44.329Z,78.97
2023-02-16T03:40:29.331Z,78.17
2023-02-16T03:42:58.556Z,77.86
2023-02-16T03:45:25.990Z,78.72
2023-02-16T03:47:53.190Z,78.20
2023-02-16T03:50:19.819Z,78.13
2023-02-16T03:52:46.449Z,77.64
2023-02-16T03:55:13.824Z,77.31
2023-02-16T03:57:40.473Z,77.41
2023-02-16T04:00:07.839Z,77.28
2023-02-16T04:05:41.918Z,78.34
2023-02-16T04:08:10.138Z,81.07
2023-02-16T04:10:38.454Z,80.79
2023-02-16T04:13:05.467Z,80.03
2023-02-16T04:15:32.470Z,79.35
2023-02-16T04:17:59.180Z,79.97
2023-02-16T04:20:29.134Z,80.00
2023-02-16T04:22:58.618Z,80.74
2023-02-16T04:25:25.740Z,79.51
2023-02-16T04:27:53.287Z,79.32
2023-02-16T04:30:26.056Z,79.17
2023-02-16T04:32:53.009Z,80.80
2023-02-16T04:35:20.250Z,82.29
2023-02-16T04:37:47.045Z,81.98
2023-02-16T04:40:15.133Z,83.02
2023-02-16T04:42:42.569Z,84.54
2023-02-16T04:45:09.924Z,83.92
2023-02-16T04:47:36.651Z,83.11
2023-02-16T04:50:03.879Z,81.81
2023-02-16T04:52:30.717Z,79.95
2023-02-16T04:54:57.293Z,79.37
2023-02-16T04:57:25.104Z,78.60
2023-02-16T04:59:51.691Z,79.13
2023-02-16T05:02:18.345Z,79.02
2023-02-16T05:04:45.052Z,78.28
2023-02-16T05:07:11.810Z,77.99
2023-02-16T05:09:38.476Z,77.98
2023-02-16T05:12:23.990Z,78.10
2023-02-16T05:14:53.029Z,77.49
2023-02-16T05:17:22.567Z,77.02
2023-02-16T05:20:00.773Z,77.97
2023-02-16T05:22:34.511Z,77.77
2023-02-16T05:25:02.034Z,77.68
2023-02-16T05:27:30.824Z,78.76
2023-02-16T05:29:58.214Z,78.61
2023-02-16T05:32:25.877Z,78.03
2023-02-16T05:34:52.561Z,77.41
2023-02-16T05:37:19.707Z,78.12
2023-02-16T05:39:46.894Z,77.45
2023-02-16T05:42:13.799Z,76.51
2023-02-16T05:44:40.517Z,77.78
2023-02-16T05:47:07.653Z,77.52
2023-02-16T05:49:34.594Z,77.79
2023-02-16T05:52:02.239Z,78.11
2023-02-16T05:54:28.964Z,78.01
2023-02-16T05:56:55.756Z,78.27
2023-02-16T05:59:22.735Z,77.60
2023-02-16T06:01:51.937Z,78.12
2023-02-16T06:04:20.628Z,77.31
2023-02-16T06:06:47.866Z,78.01
2023-02-16T06:09:15.089Z,77.35
2023-02-16T06:11:42.081Z,77.66
2023-02-16T06:14:11.678Z,77.24
2023-02-16T06:16:41.396Z,76.96
2023-02-16T06:19:08.577Z,77.22
2023-02-16T06:21:36.434Z,78.08
2023-02-16T06:24:09.812Z,77.80
2023-02-16T06:26:37.874Z,77.47
2023-02-16T06:29:08.861Z,77.22
2023-02-16T06:31:36.720Z,77.43
2023-02-16T06:34:04.507Z,77.62
2023-02-16T06:36:31.435Z,77.43
2023-02-16T06:38:58.142Z,77.99
2023-02-16T06:41:40.214Z,78.42
2023-02-16T06:44:13.494Z,78.87
2023-02-16T06:46:45.904Z,78.18
2023-02-16T06:49:18.263Z,78.65
2023-02-16T06:51:45.808Z,78.32
2023-02-16T06:54:13.124Z,79.29
2023-02-16T06:56:40.370Z,79.21
2023-02-16T06:59:06.952Z,78.05
2023-02-16T07:01:33.731Z,78.48
2023-02-16T07:04:00.279Z,77.51
2023-02-16T07:06:28.687Z,77.46
2023-02-16T07:08:56.059Z,76.70
2023-02-16T07:11:22.925Z,76.41
2023-02-16T07:13:50.061Z,77.08
2023-02-16T07:16:17.009Z,76.96
2023-02-16T07:18:43.814Z,76.74
2023-02-16T07:21:10.568Z,76.49
2023-02-16T07:23:37.248Z,78.10
2023-02-16T07:26:04.046Z,78.09
2023-02-16T07:28:30.708Z,78.47
2023-02-16T07:30:57.533Z,77.41
2023-02-16T07:33:24.101Z,77.97
2023-02-16T07:35:50.735Z,77.02
2023-02-16T07:38:17.358Z,78.16
2023-02-16T07:40:43.956Z,77.91
2023-02-16T07:43:10.583Z,77.29
2023-02-16T07:45:37.214Z,77.92
2023-02-16T07:48:04.091Z,77.64
2023-02-16T07:50:30.767Z,78.16
2023-02-16T07:52:57.382Z,77.55
2023-02-16T07:55:24.011Z,77.60
2023-02-16T07:57:54.687Z,76.46
2023-02-16T08:00:22.251Z,77.53
2023-02-16T08:02:49.269Z,78.82
2023-02-16T08:05:16.003Z,80.86
2023-02-16T08:07:42.566Z,79.80
2023-02-16T08:10:09.534Z,79.29
2023-02-16T08:12:37.043Z,79.07
2023-02-16T08:15:04.450Z,78.57
2023-02-16T08:17:31.040Z,78.63
2023-02-16T08:19:57.668Z,78.46
2023-02-16T08:22:24.261Z,77.96
2023-02-16T08:24:51.339Z,78.15
2023-02-16T08:27:17.935Z,77.79
2023-02-16T08:29:44.604Z,77.76
2023-02-16T08:32:14.728Z,77.84
2023-02-16T08:34:43.296Z,78.01
2023-02-16T08:37:12.311Z,77.95
2023-02-16T08:39:39.474Z,78.87
2023-02-16T08:42:06.187Z,78.84
2023-02-16T08:44:33.105Z,78.46
2023-02-16T08:47:00.881Z,78.41
2023-02-16T08:49:27.883Z,78.42
2023-02-16T08:51:57.978Z,77.44
2023-02-16T08:54:28.078Z,77.47
2023-02-16T08:56:55.725Z,77.97
2023-02-16T08:59:25.541Z,77.00
2023-02-16T09:01:53.898Z,77.90
2023-02-16T09:04:20.498Z,77.33
2023-02-16T09:06:50.886Z,76.81
2023-02-16T09:09:18.022Z,77.02
2023-02-16T09:11:44.596Z,77.46
2023-02-16T09:14:11.293Z,77.04
2023-02-16T09:16:39.835Z,77.29
2023-02-16T09:19:06.960Z,77.19
2023-02-16T09:21:33.647Z,77.00
2023-02-16T09:24:04.485Z,77.07
2023-02-16T09:26:33.609Z,76.96
2023-02-16T09:29:02.191Z,77.00
2023-02-16T09:31:31.479Z,77.09
2023-02-16T09:34:00.335Z,76.70
2023-02-16T09:36:27.285Z,77.16
2023-02-16T09:38:56.161Z,76.77
2023-02-16T09:41:40.596Z,76.62
2023-02-16T09:44:22.720Z,76.53
2023-02-16T09:46:50.509Z,76.21
2023-02-16T09:49:40.941Z,77.17
2023-02-16T09:52:36.383Z,76.52
2023-02-16T09:55:18.178Z,76.61
2023-02-16T09:57:55.462Z,77.36
2023-02-16T10:00:34.375Z,77.00
2023-02-16T10:03:13.740Z,77.30
2023-02-16T10:05:52.512Z,77.09
2023-02-16T10:08:34.324Z,77.17
2023-02-16T10:11:33.499Z,76.90
2023-02-16T10:14:07.946Z,76.38
2023-02-16T10:16:42.729Z,77.12
2023-02-16T10:19:23.528Z,76.59
2023-02-16T10:21:55.125Z,76.71
2023-02-16T10:24:22.047Z,76.56
2023-02-16T10:27:02.702Z,77.16
2023-02-16T10:29:29.528Z,76.92
2023-02-16T10:32:30.606Z,76.89
2023-02-16T10:35:12.007Z,75.67
2023-02-16T10:38:07.650Z,76.20
2023-02-16T10:40:44.845Z,76.11
2023-02-16T10:43:46.565Z,76.48
2023-02-16T10:46:26.563Z,76.52
2023-02-16T10:48:54.915Z,76.27
2023-02-16T10:51:28.022Z,76.12
2023-02-16T10:54:05.429Z,77.00
2023-02-16T10:56:49.609Z,76.38
2023-02-16T10:59:39.025Z,76.73
2023-02-16T11:02:35.192Z,75.12
2023-02-16T11:05:03.904Z,75.47
2023-02-16T11:07:31.414Z,76.02
2023-02-16T11:10:02.752Z,76.71
2023-02-16T11:12:38.872Z,75.86
2023-02-16T11:15:16.590Z,76.24
2023-02-16T11:17:57.799Z,76.53
2023-02-16T11:20:30.148Z,76.91
2023-02-16T11:23:27.686Z,76.14
2023-02-16T11:26:06.729Z,76.58
2023-02-16T11:28:44.758Z,77.15
2023-02-16T11:31:13.820Z,75.74
2023-02-16T11:33:42.057Z,76.39
2023-02-16T11:36:32.493Z,75.77
2023-02-16T11:39:08.870Z,75.39
2023-02-16T11:41:37.527Z,75.73
2023-02-16T11:44:04.493Z,75.83
2023-02-16T11:46:40.345Z,75.53
2023-02-16T11:49:29.070Z,75.92
2023-02-16T11:51:55.932Z,75.67
2023-02-16T11:54:23.072Z,75.34
2023-02-16T11:57:09.392Z,75.59
2023-02-16T11:59:39.091Z,75.78
2023-02-16T12:02:20.452Z,75.91
2023-02-16T12:05:08.991Z,75.83
2023-02-16T12:07:58.022Z,75.46
2023-02-16T12:10:36.236Z,75.24
2023-02-16T12:13:31.951Z,75.50
2023-02-16T12:16:37.159Z,75.75
2023-02-16T12:19:19.124Z,75.87
2023-02-16T12:22:17.170Z,75.23
2023-02-16T12:24:59.035Z,74.79
2023-02-16T12:27:33.664Z,75.23
2023-02-16T12:30:19.962Z,75.75
2023-02-16T12:33:01.800Z,75.37
2023-02-16T12:36:00.873Z,75.39
2023-02-16T12:38:45.557Z,75.86
2023-02-16T12:41:30.370Z,76.33
2023-02-16T12:44:02.967Z,75.18
2023-02-16T12:46:54.550Z,76.21
2023-02-16T12:49:27.483Z,76.40
2023-02-16T12:52:07.024Z,75.77
2023-02-16T12:54:41.159Z,76.08
2023-02-16T12:57:15.004Z,76.10
2023-02-16T12:59:48.718Z,75.32
2023-02-16T13:02:26.848Z,76.17
2023-02-16T13:05:29.864Z,75.17
2023-02-16T13:08:02.895Z,74.54
2023-02-16T13:10:51.823Z,75.64
2023-02-16T13:13:26.611Z,75.61
2023-02-16T13:16:24.113Z,75.72
2023-02-16T13:18:57.071Z,74.90
2023-02-16T13:21:51.531Z,75.25
2023-02-16T13:24:30.499Z,75.21
2023-02-16T13:27:18.601Z,75.91
2023-02-16T13:30:22.988Z,74.46
2023-02-16T13:33:18.912Z,75.87
2023-02-16T13:36:10.626Z,75.85
2023-02-16T13:39:20.727Z,75.41
2023-02-16T13:42:01.466Z,74.73
2023-02-16T13:44:56.321Z,74.79
2023-02-16T13:47:30.726Z,75.24
2023-02-16T13:50:00.345Z,75.67
2023-02-16T13:52:34.734Z,74.93
2023-02-16T13:55:04.902Z,75.44
2023-02-16T13:57:50.652Z,74.83
2023-02-16T14:00:32.735Z,74.93
2023-02-16T14:03:22.603Z,75.33
2023-02-16T14:05:54.083Z,76.40
2023-02-16T14:08:28.757Z,76.79
2023-02-16T14:10:59.542Z,77.73
2023-02-16T14:13:36.505Z,77.68
2023-02-16T14:16:10.548Z,77.21
2023-02-16T14:18:43.029Z,77.79
2023-02-16T14:21:28.381Z,78.12
2023-02-16T14:23:57.255Z,79.64
2023-02-16T14:26:24.720Z,79.36
2023-02-16T14:29:10.129Z,79.18
2023-02-16T14:31:47.233Z,77.86
2023-02-16T14:34:28.512Z,77.90
2023-02-16T14:37:17.082Z,76.60
2023-02-16T14:40:06.538Z,75.76
2023-02-16T14:42:34.901Z,75.49
2023-02-16T14:45:18.825Z,75.94
2023-02-16T14:48:02.813Z,76.43
2023-02-16T14:50:44.573Z,76.29
2023-02-16T14:53:39.318Z,75.65
2023-02-16T14:56:28.449Z,75.08
2023-02-16T14:59:01.916Z,75.70
2023-02-16T15:01:29.005Z,74.79
2023-02-16T15:03:58.021Z,75.58
2023-02-16T15:06:34.312Z,75.13
2023-02-16T15:09:06.439Z,75.79
2023-02-16T15:11:56.238Z,75.78
2023-02-16T15:14:25.685Z,75.30
2023-02-16T15:16:53.948Z,74.93
2023-02-16T15:19:27.708Z,74.70
2023-02-16T15:22:23.432Z,75.01
2023-02-16T15:24:56.178Z,74.83
2023-02-16T15:27:23.457Z,75.05
2023-02-16T15:30:21.507Z,80.31
2023-02-16T15:33:04.682Z,82.24
2023-02-16T15:35:39.141Z,81.59
2023-02-16T15:38:11.913Z,81.51
2023-02-16T15:40:39.808Z,79.77
2023-02-16T15:43:19.648Z,79.12
2023-02-16T15:45:54.772Z,78.92
2023-02-16T15:48:37.659Z,77.62
2023-02-16T15:51:16.352Z,76.84
2023-02-16T15:53:52.964Z,78.20
2023-02-16T15:56:43.359Z,81.45
2023-02-16T15:59:43.943Z,80.39
2023-02-16T16:02:26.402Z,79.67
2023-02-16T16:04:59.234Z,77.59
2023-02-16T16:07:35.725Z,77.88
2023-02-16T16:10:11.588Z,77.32
2023-02-16T16:12:38.459Z,77.43
2023-02-16T16:15:17.483Z,77.66
2023-02-16T16:17:44.305Z,78.22
2023-02-16T16:20:38.020Z,82.09
2023-02-16T16:23:23.559Z,83.72
2023-02-16T16:25:51.088Z,85.55
2023-02-16T16:28:29.799Z,84.27
2023-02-16T16:31:07.840Z,83.21
2023-02-16T16:33:59.443Z,81.32
2023-02-16T16:36:35.214Z,80.16
2023-02-16T16:39:21.067Z,78.58
2023-02-16T16:42:09.040Z,80.67
2023-02-16T16:44:42.020Z,80.12
2023-02-16T16:47:26.640Z,80.89
2023-02-16T16:50:04.004Z,80.95
2023-02-16T16:52:45.906Z,79.81
2023-02-16T16:55:23.041Z,78.03
2023-02-16T16:57:52.511Z,76.47
2023-02-16T17:00:21.220Z,76.79
2023-02-16T17:02:48.654Z,75.64
2023-02-16T17:05:15.582Z,75.06
2023-02-16T17:07:42.200Z,75.51
2023-02-16T17:10:09.273Z,75.77
2023-02-16T17:12:36.275Z,76.84
2023-02-16T17:15:03.167Z,74.98
2023-02-16T17:17:31.440Z,75.67
2023-02-16T17:19:58.305Z,76.30
2023-02-16T17:22:24.997Z,76.41
2023-02-16T17:24:51.675Z,76.89
2023-02-16T17:27:19.733Z,77.39
2023-02-16T17:29:46.660Z,76.36
2023-02-16T17:32:13.541Z,76.36
2023-02-16T17:34:40.244Z,76.29
2023-02-16T17:37:10.034Z,76.76
2023-02-16T17:39:36.729Z,75.95
2023-02-16T17:42:03.656Z,74.95
2023-02-16T17:44:30.430Z,75.75
2023-02-16T17:46:57.288Z,75.69
2023-02-16T17:49:24.223Z,76.20
2023-02-16T17:51:50.879Z,76.54
2023-02-16T17:54:17.626Z,76.31
2023-02-16T17:56:45.356Z,76.22
2023-02-16T17:59:15.973Z,76.10
2023-02-16T18:01:43.696Z,75.33
2023-02-16T18:04:10.468Z,75.25
2023-02-16T18:06:37.198Z,74.57
2023-02-16T18:09:04.410Z,75.45
2023-02-16T18:11:31.276Z,74.25
2023-02-16T18:13:58.103Z,75.59
2023-02-16T18:16:27.423Z,75.07
2023-02-16T18:18:54.797Z,74.63
2023-02-16T18:21:21.401Z,75.37
2023-02-16T18:23:48.071Z,74.61
2023-02-16T18:26:16.511Z,75.86
2023-02-16T18:28:43.409Z,76.39
2023-02-16T18:31:10.490Z,78.36
2023-02-16T18:33:37.465Z,79.28
2023-02-16T18:36:08.811Z,77.94
2023-02-16T18:38:35.605Z,76.59
2023-02-16T18:41:02.434Z,76.34
2023-02-16T18:43:29.164Z,75.48
2023-02-16T18:45:55.745Z,76.01
2023-02-16T18:48:22.447Z,75.58
2023-02-16T18:50:52.193Z,75.82
2023-02-16T18:53:18.890Z,76.24
2023-02-16T18:55:45.573Z,74.68
2023-02-16T18:58:14.131Z,75.68
2023-02-16T19:00:41.574Z,74.29
2023-02-16T19:03:08.775Z,75.92
2023-02-16T19:05:38.252Z,76.43
2023-02-16T19:08:05.278Z,76.17
2023-02-16T19:10:32.619Z,77.99
2023-02-16T19:13:01.288Z,78.57
2023-02-16T19:15:29.158Z,77.98
2023-02-16T19:17:55.818Z,76.94
2023-02-16T19:20:22.564Z,76.81
2023-02-16T19:22:49.411Z,76.28
2023-02-16T19:25:17.609Z,76.04
2023-02-16T19:27:47.394Z,75.60
2023-02-16T19:30:14.442Z,77.46
2023-02-16T19:32:41.535Z,78.25
2023-02-16T19:35:09.384Z,76.91
2023-02-16T19:37:36.378Z,76.24
2023-02-16T19:40:05.166Z,76.79
2023-02-16T19:42:31.824Z,76.45
2023-02-16T19:44:59.299Z,74.69
2023-02-16T19:47:26.159Z,76.47
2023-02-16T19:49:52.849Z,76.54
2023-02-16T19:52:19.411Z,78.00
2023-02-16T19:54:46.136Z,79.71
2023-02-16T19:57:12.737Z,79.32
2023-02-16T19:59:39.437Z,78.57
2023-02-16T20:02:06.296Z,80.06
2023-02-16T20:04:32.942Z,79.55
2023-02-16T20:06:59.676Z,78.67
2023-02-16T20:09:26.669Z,77.56
2023-02-16T20:11:53.543Z,77.37
2023-02-16T20:14:20.609Z,75.58
2023-02-16T20:16:49.461Z,75.95
2023-02-16T20:19:19.372Z,75.93
2023-02-16T20:21:46.393Z,75.81
2023-02-16T20:24:13.987Z,75.65
2023-02-16T20:26:43.639Z,75.53
2023-02-16T20:29:12.273Z,73.82
2023-02-16T20:31:42.291Z,75.24
2023-02-16T20:34:10.223Z,78.11
2023-02-16T20:36:37.870Z,77.67
2023-02-16T20:39:06.860Z,78.49
2023-02-16T20:41:33.433Z,78.83
2023-02-16T20:44:02.902Z,77.96
2023-02-16T20:46:32.894Z,77.92
2023-02-16T20:48:59.541Z,78.45
2023-02-16T20:51:26.469Z,76.73
2023-02-16T20:53:53.064Z,75.92
2023-02-16T20:56:22.345Z,76.85
2023-02-16T20:58:53.187Z,76.55
2023-02-16T21:01:29.718Z,76.12
2023-02-16T21:03:58.133Z,75.12
2023-02-16T21:06:25.812Z,74.81
2023-02-16T21:08:52.543Z,74.95
2023-02-16T21:11:19.758Z,76.66
2023-02-16T21:13:46.971Z,77.62
2023-02-16T21:16:14.786Z,78.83
2023-02-16T21:18:41.532Z,79.19
2023-02-16T21:21:09.607Z,79.54
2023-02-16T21:23:36.496Z,78.84
2023-02-16T21:26:06.199Z,78.13
2023-02-16T21:28:33.559Z,77.63
2023-02-16T21:31:05.913Z,76.51
2023-02-16T21:33:33.053Z,76.66
2023-02-16T21:36:08.231Z,75.88
2023-02-16T21:38:36.120Z,75.90
2023-02-16T21:41:26.591Z,75.61
2023-02-16T21:44:05.004Z,75.65
2023-02-16T21:46:40.234Z,76.07
2023-02-16T21:49:09.865Z,74.85
2023-02-16T21:51:38.987Z,77.16
2023-02-16T21:54:07.213Z,76.66
2023-02-16T21:56:44.998Z,76.49
2023-02-16T21:59:15.525Z,76.67
2023-02-16T22:01:53.217Z,76.54
2023-02-16T22:04:22.139Z,76.36
2023-02-16T22:06:50.237Z,76.51
2023-02-16T22:09:22.447Z,74.92
2023-02-16T22:11:50.058Z,75.42
2023-02-16T22:14:16.767Z,75.20
2023-02-16T22:16:46.164Z,75.95
2023-02-16T22:19:15.352Z,76.07
2023-02-16T22:21:44.148Z,75.72
2023-02-16T22:24:15.416Z,75.46
2023-02-16T22:26:43.082Z,75.16
2023-02-16T22:29:10.654Z,74.96
2023-02-16T22:31:37.481Z,74.66
2023-02-16T22:34:06.694Z,75.94
2023-02-16T22:36:34.347Z,75.73
2023-02-16T22:39:00.984Z,75.60
2023-02-16T22:41:27.594Z,75.21
2023-02-16T22:43:55.777Z,75.22
2023-02-16T22:46:24.201Z,75.42
2023-02-16T22:48:52.028Z,75.81
2023-02-16T22:51:20.134Z,75.41
2023-02-16T22:53:47.319Z,76.69
2023-02-16T22:56:16.307Z,76.96
2023-02-16T22:58:43.665Z,79.30
2023-02-16T23:01:12.871Z,81.62
2023-02-16T23:03:39.811Z,82.36
2023-02-16T23:06:34.063Z,82.28
2023-02-16T23:09:04.214Z,81.63
2023-02-16T23:11:31.644Z,81.03
2023-02-16T23:13:58.441Z,81.79
2023-02-16T23:16:26.775Z,83.92
2023-02-16T23:18:56.437Z,84.32
2023-02-16T23:21:27.030Z,84.40
2023-02-16T23:23:54.354Z,84.34
2023-02-16T23:26:23.087Z,85.07
2023-02-16T23:28:51.707Z,85.51
2023-02-16T23:31:19.492Z,86.05
2023-02-16T23:33:46.327Z,85.88
2023-02-16T23:36:13.131Z,85.98
2023-02-16T23:38:39.908Z,86.06
2023-02-16T23:41:10.611Z,85.37
2023-02-16T23:43:37.995Z,84.58
2023-02-16T23:46:05.981Z,84.22
2023-02-16T23:48:32.834Z,83.09
2023-02-16T23:50:59.788Z,84.20
2023-02-16T23:53:27.724Z,84.12
2023-02-16T23:56:25.368Z,83.44
2023-02-16T23:58:55.876Z,83.72
